Time;durP1;ratioP1;P1;durP2;ratioP2;P2;SDS_P1;SDS_P2;PMS_P1;PMS_P2;Temp;Humidity;BMP_temperature;BMP_pressure;BME280_temperature;BME280_humidity;BME280_pressure;Samples;Min_cycle;Max_cycle;Signal;HPM_P1;HPM_P2
2022/04/06 00:01:08;;;;;;;21.63;13.07;;;;;;;6.62;100.00;99836.47;10218872;28;20787;-68
2022/04/06 00:06:04;;;;;;;15.63;9.55;;;;;;;6.85;100.00;99823.63;10209753;28;20392;-67
2022/04/06 00:11:02;;;;;;;12.60;8.32;;;;;;;7.01;100.00;99834.84;10205776;28;20069;-67
2022/04/06 00:15:59;;;;;;;11.75;7.32;;;;;;;7.11;100.00;99831.84;10213182;28;20076;-66
2022/04/06 00:20:55;;;;;;;12.60;8.20;;;;;;;7.18;100.00;99826.72;10216095;28;20038;-67
2022/04/06 00:25:52;;;;;;;10.55;7.20;;;;;;;7.24;100.00;99830.91;10213999;28;20049;-68
2022/04/06 00:30:49;;;;;;;12.73;7.70;;;;;;;7.28;100.00;99820.97;10203216;28;20045;-68
2022/04/06 00:35:45;;;;;;;12.20;7.78;;;;;;;7.30;100.00;99826.13;10201502;28;20045;-68
2022/04/06 00:40:42;;;;;;;12.95;7.05;;;;;;;7.30;100.00;99820.69;10207460;28;20045;-70
2022/04/06 00:45:40;;;;;;;12.10;8.02;;;;;;;7.33;100.00;99828.19;10192617;28;20148;-70
2022/04/06 00:50:37;;;;;;;11.98;7.93;;;;;;;7.35;100.00;99815.88;10201590;28;20535;-69
2022/04/06 00:55:37;;;;;;;10.77;7.95;;;;;;;7.33;100.00;99818.13;10207990;28;20100;-69
2022/04/06 01:00:33;;;;;;;13.43;8.15;;;;;;;7.35;100.00;99815.88;10203084;28;20653;-69
2022/04/06 01:05:30;;;;;;;11.70;7.05;;;;;;;7.35;100.00;99815.88;10196627;28;20133;-69
2022/04/06 01:10:27;;;;;;;10.55;6.70;;;;;;;7.36;100.00;99811.25;10209351;28;20451;-69
2022/04/06 01:15:24;;;;;;;10.43;6.32;;;;;;;7.34;100.00;99806.13;10210032;28;20132;-65
2022/04/06 01:20:20;;;;;;;8.18;5.40;;;;;;;7.32;100.00;99816.53;10208042;28;20045;-65
2022/04/06 01:25:17;;;;;;;10.88;6.82;;;;;;;7.29;100.00;99816.38;10217917;28;20081;-65
2022/04/06 01:30:13;;;;;;;9.10;5.85;;;;;;;7.30;100.00;99818.75;10213598;28;20141;-71
2022/04/06 01:35:10;;;;;;;10.98;5.43;;;;;;;7.32;100.00;99816.53;10209131;28;20092;-69
2022/04/06 01:40:07;;;;;;;10.40;6.30;;;;;;;7.33;100.00;99823.56;10216250;28;20046;-69
2022/04/06 01:45:04;;;;;;;7.68;5.63;;;;;;;7.30;100.00;99810.59;10210678;28;20612;-66
2022/04/06 01:55:16;;;;;;;8.57;6.03;;;;;;;7.28;100.00;99820.97;10221962;28;20076;-66
2022/04/06 02:00:17;;;;;;;8.57;5.00;;;;;;;7.28;100.00;99829.13;10217568;28;20112;-67
2022/04/06 02:05:15;;;;;;;7.60;4.68;;;;;;;7.28;100.00;99810.09;10209933;28;20054;-70
2022/04/06 02:10:11;;;;;;;9.38;5.00;;;;;;;7.27;100.00;99818.59;10208735;28;20080;-70
2022/04/06 02:15:12;;;;;;;7.55;4.25;;;;;;;7.26;100.00;99806.91;10208061;28;20088;-70
2022/04/06 02:20:09;;;;;;;7.07;4.30;;;;;;;7.28;100.00;99803.88;10211190;28;20440;-69
2022/04/06 02:25:06;;;;;;;8.57;3.70;;;;;;;7.21;100.00;99792.66;10213347;28;20141;-70
2022/04/06 02:30:03;;;;;;;5.50;3.70;;;;;;;7.22;100.00;99797.81;10210508;28;20061;-69
2022/04/06 02:35:00;;;;;;;5.28;3.45;;;;;;;7.23;100.00;99798.59;10205817;28;20068;-70
2022/04/06 02:39:56;;;;;;;7.25;3.85;;;;;;;7.23;100.00;99793.16;10211019;28;20588;-70
2022/04/06 02:44:53;;;;;;;6.05;3.85;;;;;;;7.22;100.00;99788.81;10211850;28;20045;-66
2022/04/06 02:49:49;;;;;;;10.90;4.82;;;;;;;7.24;100.00;99787.41;10215638;28;20076;-67
2022/04/06 02:54:46;;;;;;;10.45;5.65;;;;;;;7.21;100.00;99779.88;10212663;28;20842;-66
2022/04/06 02:59:42;;;;;;;12.68;7.50;;;;;;;7.18;100.00;99777.81;10214975;28;20096;-69
2022/04/06 03:04:39;;;;;;;11.38;6.90;;;;;;;7.21;100.00;99779.88;10203829;28;20076;-68
2022/04/06 03:09:35;;;;;;;11.27;7.38;;;;;;;7.21;100.00;99777.16;10215624;28;20100;-69
2022/04/06 03:14:32;;;;;;;17.00;9.85;;;;;;;7.20;100.00;99785.66;10205550;28;20120;-68
2022/04/06 03:19:29;;;;;;;16.95;9.38;;;;;;;7.20;100.00;99781.00;10203146;28;20661;-68
2022/04/06 03:24:26;;;;;;;14.40;10.07;;;;;;;7.20;100.00;99770.13;10199509;28;20042;-70
2022/04/06 03:29:22;;;;;;;17.80;10.80;;;;;;;7.23;100.00;99774.91;10200105;28;20049;-70
2022/04/06 03:34:22;;;;;;;22.92;11.68;;;;;;;7.25;100.00;99772.69;10202812;28;20107;-69
2022/04/06 03:39:19;;;;;;;15.77;11.25;;;;;;;7.26;100.00;99771.56;10204033;28;20511;-67
2022/04/06 03:44:15;;;;;;;20.08;11.05;;;;;;;7.28;100.00;99760.38;10227516;28;20123;-67
2022/04/06 03:49:12;;;;;;;22.10;13.98;;;;;;;7.30;100.00;99758.94;10219030;28;20049;-68
2022/04/06 03:54:09;;;;;;;26.58;12.20;;;;;;;7.30;100.00;99753.50;10227110;28;20049;-68
2022/04/06 03:59:06;;;;;;;24.40;14.13;;;;;;;7.32;100.00;99745.03;10214630;28;20049;-66
2022/04/06 04:04:04;;;;;;;28.30;14.70;;;;;;;7.30;100.00;99731.75;10198857;28;20041;-66
2022/04/06 04:09:00;;;;;;;26.48;13.32;;;;;;;7.31;100.00;99736.06;10201876;28;20497;-66
2022/04/06 04:13:57;;;;;;;25.83;15.88;;;;;;;7.38;100.00;99730.94;10209621;28;20794;-66
2022/04/06 04:18:53;;;;;;;28.80;15.27;;;;;;;7.43;100.00;99734.63;10212749;28;20662;-65
2022/04/06 04:23:50;;;;;;;24.70;15.40;;;;;;;7.41;100.00;99731.44;10221809;28;20456;-66
2022/04/06 04:28:46;;;;;;;33.75;17.35;;;;;;;7.43;100.00;99712.88;10223449;28;20077;-66
2022/04/06 04:33:43;;;;;;;33.05;20.58;;;;;;;7.46;100.00;99723.09;10209788;28;20180;-64
2022/04/06 04:38:40;;;;;;;39.08;23.05;;;;;;;7.47;100.00;99735.56;10225941;28;20767;-65
2022/04/06 04:43:36;;;;;;;37.28;22.85;;;;;;;7.44;100.00;99723.41;10201761;28;20073;-67
2022/04/06 04:48:33;;;;;;;41.72;25.63;;;;;;;7.45;100.00;99732.38;10208696;28;20144;-68
2022/04/06 04:53:30;;;;;;;39.63;24.85;;;;;;;7.43;100.00;99734.63;10211366;28;20389;-68
2022/04/06 04:58:27;;;;;;;47.85;28.58;;;;;;;7.45;100.00;99726.94;10226505;28;20077;-68
2022/04/06 05:03:23;;;;;;;47.60;30.05;;;;;;;7.44;100.00;99725.34;10208145;28;20132;-68
2022/04/06 05:08:20;;;;;;;47.83;28.95;;;;;;;7.43;100.00;99726.47;10221035;28;20049;-68
2022/04/06 05:13:20;;;;;;;50.55;31.90;;;;;;;7.51;100.00;99714.78;10209450;28;20103;-68
2022/04/06 05:18:18;;;;;;;50.85;29.60;;;;;;;7.53;100.00;99723.41;10219015;28;20045;-68
2022/04/06 05:23:15;;;;;;;44.97;29.38;;;;;;;7.52;100.00;99717.19;10231953;28;20549;-68
2022/04/06 05:28:15;;;;;;;49.97;30.15;;;;;;;7.54;100.00;99719.56;10197328;28;20076;-68
2022/04/06 05:33:12;;;;;;;55.60;31.98;;;;;;;7.56;100.00;99714.59;10206438;28;20073;-68
2022/04/06 05:38:08;;;;;;;50.03;29.60;;;;;;;7.54;100.00;99716.84;10230158;28;20567;-68
2022/04/06 05:43:05;;;;;;;50.70;29.90;;;;;;;7.56;100.00;99717.31;10231542;28;20149;-68
2022/04/06 05:48:03;;;;;;;49.65;28.80;;;;;;;7.57;100.00;99713.50;10229128;28;20096;-68
2022/04/06 05:53:00;;;;;;;42.80;23.73;;;;;;;7.59;100.00;99705.81;10230952;28;20081;-68
2022/04/06 05:57:56;;;;;;;43.10;24.80;;;;;;;7.65;100.00;99715.41;10232333;28;20069;-68
2022/04/06 06:02:53;;;;;;;45.83;23.70;;;;;;;7.64;100.00;99711.09;10215030;28;20076;-68
2022/04/06 06:07:49;;;;;;;36.15;21.73;;;;;;;7.70;100.00;99711.72;10230066;28;20136;-68
2022/04/06 06:12:46;;;;;;;37.22;17.80;;;;;;;7.70;100.00;99723.38;10214972;28;20571;-68
2022/04/06 06:17:42;;;;;;;29.73;17.40;;;;;;;7.73;100.00;99690.09;10226457;28;20503;-68
2022/04/06 06:22:39;;;;;;;32.88;15.75;;;;;;;7.74;100.00;99707.22;10200455;28;20689;-68
2022/04/06 06:27:40;;;;;;;28.45;14.05;;;;;;;7.74;100.00;99697.13;10214055;28;20128;-67
2022/04/06 06:32:36;;;;;;;27.95;14.55;;;;;;;7.76;100.00;99684.00;10201656;28;20522;-68
2022/04/06 06:37:33;;;;;;;32.38;14.27;;;;;;;7.77;100.00;99680.19;10209585;28;20116;-68
2022/04/06 06:42:30;;;;;;;30.92;13.07;;;;;;;7.83;100.00;99682.72;10199899;28;20057;-68
2022/04/06 06:47:26;;;;;;;32.03;14.65;;;;;;;7.87;100.00;99667.34;10204769;28;20054;-68
2022/04/06 06:52:23;;;;;;;25.02;12.77;;;;;;;7.95;100.00;99669.22;10195597;28;20111;-68
2022/04/06 06:57:19;;;;;;;24.48;10.90;;;;;;;7.96;100.00;99654.47;10219114;28;20111;-68
2022/04/06 07:02:16;;;;;;;26.90;14.27;;;;;;;8.07;100.00;99654.94;10230448;28;20085;-68
2022/04/06 07:07:12;;;;;;;25.30;12.05;;;;;;;8.12;100.00;99657.47;10225354;28;20099;-68
2022/04/06 07:12:12;;;;;;;25.73;12.95;;;;;;;8.20;100.00;99654.72;10227925;28;20046;-68
2022/04/06 07:17:09;;;;;;;26.67;13.88;;;;;;;8.27;100.00;99651.47;10229095;28;20092;-68
2022/04/06 07:22:05;;;;;;;30.80;14.75;;;;;;;8.27;100.00;99653.41;10222958;28;20140;-68
2022/04/06 07:27:02;;;;;;;30.25;14.57;;;;;;;8.31;100.00;99665.22;10228362;28;20414;-68
2022/04/06 07:31:59;;;;;;;26.42;16.17;;;;;;;8.35;100.00;99650.63;10214951;28;20045;-68
2022/04/06 07:36:55;;;;;;;27.70;15.75;;;;;;;8.38;100.00;99643.75;10228324;28;20527;-68
2022/04/06 07:41:58;;;;;;;23.45;14.43;;;;;;;8.36;100.00;99632.38;10204819;28;20132;-68
2022/04/06 07:46:55;;;;;;;22.48;15.05;;;;;;;8.26;100.00;99635.44;10228167;28;20111;-68
2022/04/06 07:51:51;;;;;;;25.52;14.38;;;;;;;8.29;100.00;99641.06;10203736;28;20435;-68
2022/04/06 07:56:48;;;;;;;23.63;15.35;;;;;;;8.29;100.00;99626.66;10228084;28;20049;-68
2022/04/06 08:01:45;;;;;;;28.40;15.45;;;;;;;8.26;100.00;99619.91;10200633;28;20536;-68
2022/04/06 08:06:41;;;;;;;34.25;15.82;;;;;;;8.25;100.00;99634.66;10221938;28;20539;-68
2022/04/06 08:11:38;;;;;;;27.98;14.82;;;;;;;8.29;100.00;99637.53;10190643;28;20736;-68
2022/04/06 08:16:34;;;;;;;26.85;17.13;;;;;;;8.29;100.00;99629.38;10211525;28;20069;-68
2022/04/06 08:21:31;;;;;;;23.83;13.55;;;;;;;8.31;100.00;99637.97;10225877;28;20073;-68
2022/04/06 08:26:27;;;;;;;30.00;14.77;;;;;;;8.38;100.00;99635.56;10225627;28;20899;-68
2022/04/06 08:31:24;;;;;;;27.58;15.52;;;;;;;8.46;100.00;99628.50;10231096;28;20080;-68
2022/04/06 08:36:23;;;;;;;29.17;15.30;;;;;;;8.47;100.00;99630.91;10229857;28;20095;-68
2022/04/06 08:41:24;;;;;;;22.98;13.63;;;;;;;8.51;100.00;99631.03;10222511;28;20129;-68
2022/04/06 08:46:21;;;;;;;24.30;12.32;;;;;;;8.57;100.00;99640.59;10232994;28;20095;-68
2022/04/06 08:51:20;;;;;;;22.08;11.48;;;;;;;8.58;100.00;99620.41;10203356;28;20081;-68
2022/04/06 08:56:16;;;;;;;22.35;12.40;;;;;;;8.63;100.00;99629.19;10234070;28;20061;-68
2022/04/06 09:01:13;;;;;;;22.30;11.85;;;;;;;8.63;100.00;99612.84;10198547;28;20096;-68
2022/04/06 09:06:12;;;;;;;21.33;10.82;;;;;;;8.69;100.00;99621.59;10230079;28;20053;-68
2022/04/06 09:11:22;;;;;;;14.57;10.25;;;;;;;8.69;100.00;99615.34;10194875;28;20542;-68
2022/04/06 09:16:19;;;;;;;20.60;10.40;;;;;;;8.75;100.00;99622.19;10216233;28;20104;-69
2022/04/06 09:21:17;;;;;;;19.15;10.20;;;;;;;8.75;100.00;99611.28;10229625;28;20124;-67
2022/04/06 09:26:17;;;;;;;17.50;9.35;;;;;;;8.77;100.00;99628.94;10228398;28;20045;-68
2022/04/06 09:31:15;;;;;;;18.25;9.63;;;;;;;8.83;100.00;99637.69;10227080;28;20459;-69
2022/04/06 09:36:20;;;;;;;16.88;8.57;;;;;;;8.65;100.00;99631.56;10230651;28;20053;-68
2022/04/06 09:41:18;;;;;;;19.02;9.82;;;;;;;8.57;100.00;99640.59;10206085;28;20116;-69
2022/04/06 09:51:39;;;;;;;16.90;9.50;;;;;;;8.50;100.00;99646.56;10203795;28;20057;-69
2022/04/06 09:56:36;;;;;;;16.33;9.05;;;;;;;8.49;100.00;99628.63;10223995;28;20053;-69
2022/04/06 10:01:58;;;;;;;17.27;9.40;;;;;;;8.49;100.00;99625.88;10229974;28;20098;-68
2022/04/06 10:06:56;;;;;;;16.75;8.95;;;;;;;8.42;100.00;99633.78;10219287;28;20046;-68
2022/04/06 10:11:54;;;;;;;16.10;9.35;;;;;;;8.33;100.00;99630.28;10196761;28;20476;-68
2022/04/06 10:16:51;;;;;;;16.45;8.18;;;;;;;8.31;100.00;99627.09;10223117;28;20046;-68
2022/04/06 10:22:15;;;;;;;15.73;8.85;;;;;;;8.48;100.00;99628.97;10231368;28;20076;-69
2022/04/06 10:27:23;;;;;;;15.15;8.15;;;;;;;8.50;100.00;99641.13;10213256;28;20507;-69
2022/04/06 10:32:43;;;;;;;12.35;8.50;;;;;;;8.41;100.00;99621.31;10198637;28;20045;-69
2022/04/06 10:37:48;;;;;;;14.15;8.95;;;;;;;8.48;100.00;99616.13;10223128;28;20523;-69
2022/04/06 10:42:46;;;;;;;16.25;10.85;;;;;;;8.44;100.00;99623.38;10222279;28;20070;-69
2022/04/06 10:48:09;;;;;;;18.50;11.13;;;;;;;8.41;100.00;99615.88;10230745;28;20069;-68
2022/04/06 10:53:20;;;;;;;15.97;10.67;;;;;;;8.37;100.00;99623.06;10209807;28;20498;-69
2022/04/06 10:58:17;;;;;;;18.40;12.25;;;;;;;8.26;100.00;99608.22;10225130;28;20056;-68
2022/04/06 11:03:16;;;;;;;18.25;11.75;;;;;;;8.23;100.00;99601.50;10205003;28;20049;-69
2022/04/06 11:14:04;;;;;;;16.17;8.98;;;;;;;8.38;100.00;99589.25;10211322;28;20225;-69
2022/04/06 11:19:00;;;;;;;22.75;9.55;;;;;;;8.46;100.00;99568.56;10214129;28;20069;-69
2022/04/06 11:23:57;;;;;;;18.88;8.70;;;;;;;8.49;100.00;99574.13;10224355;28;20041;-69
2022/04/06 11:29:00;;;;;;;14.35;8.52;;;;;;;8.52;100.00;99581.66;10229229;28;20558;-69
2022/04/06 11:33:56;;;;;;;13.48;7.22;;;;;;;8.56;100.00;99574.44;10220363;28;20072;-69
2022/04/06 11:38:53;;;;;;;13.52;7.38;;;;;;;8.66;100.00;99569.69;10228588;28;20053;-69
2022/04/06 11:43:53;;;;;;;15.30;8.15;;;;;;;8.76;100.00;99561.13;10219287;28;20164;-69
2022/04/06 11:48:50;;;;;;;17.13;8.25;;;;;;;8.81;100.00;99569.09;10219557;28;20276;-68
2022/04/06 11:53:46;;;;;;;15.35;8.25;;;;;;;8.91;100.00;99565.97;10203394;28;20111;-69
2022/04/06 11:58:51;;;;;;;15.02;9.15;;;;;;;8.93;100.00;99560.94;10209201;28;20056;-69
2022/04/06 12:03:49;;;;;;;16.58;8.65;;;;;;;8.86;100.00;99571.59;10207651;28;20045;-69
2022/04/06 12:08:46;;;;;;;16.10;8.88;;;;;;;8.94;100.00;99573.47;10204354;28;20558;-69
2022/04/06 12:13:44;;;;;;;15.48;8.85;;;;;;;8.97;100.00;99578.25;10206563;28;20764;-69
2022/04/06 12:18:42;;;;;;;19.25;9.13;;;;;;;8.85;100.00;99570.03;10225957;28;20072;-69
2022/04/06 12:23:44;;;;;;;19.20;9.77;;;;;;;8.73;100.00;99578.16;10216026;28;20076;-71
2022/04/06 12:28:43;;;;;;;20.50;10.60;;;;;;;8.67;100.00;99584.91;10187156;28;20077;-69
2022/04/06 12:33:48;;;;;;;17.23;9.25;;;;;;;8.66;100.00;99577.84;10204191;28;20656;-69
2022/04/06 12:39:02;;;;;;;15.32;9.82;;;;;;;8.72;100.00;99581.97;10217378;28;20078;-69
2022/04/06 12:44:00;;;;;;;20.10;9.75;;;;;;;8.83;100.00;99566.81;10206418;28;20054;-69
2022/04/06 12:49:19;;;;;;;19.90;9.98;;;;;;;9.14;100.00;99549.22;10206195;28;20569;-69
2022/04/06 12:54:17;;;;;;;16.83;10.07;;;;;;;9.42;100.00;99552.94;10206769;28;20053;-69
2022/04/06 12:59:13;;;;;;;16.13;8.68;;;;;;;9.39;100.00;99545.41;10226122;28;20507;-69
2022/04/06 13:04:10;;;;;;;12.98;8.38;;;;;;;9.33;100.00;99535.03;10213441;28;20037;-69
2022/04/06 13:09:13;;;;;;;15.93;8.50;;;;;;;9.27;100.00;99529.03;10220599;28;20582;-69
2022/04/06 13:14:20;;;;;;;15.43;7.07;;;;;;;9.23;100.00;99525.38;10206018;28;20477;-69
2022/04/06 13:19:17;;;;;;;11.10;5.88;;;;;;;9.12;100.00;99527.75;10210868;28;20159;-69
2022/04/06 13:24:13;;;;;;;15.90;6.78;;;;;;;9.12;100.00;99540.56;10227832;28;20466;-69
2022/04/06 13:29:10;;;;;;;11.77;6.10;;;;;;;8.97;100.00;99534.63;10233088;28;20041;-69
2022/04/06 13:34:06;;;;;;;18.55;7.78;;;;;;;8.91;100.00;99530.53;10231279;28;20061;-69
2022/04/06 13:39:03;;;;;;;11.38;6.70;;;;;;;8.86;100.00;99544.34;10233407;28;20049;-69
2022/04/06 13:43:59;;;;;;;12.40;7.25;;;;;;;8.87;100.00;99524.16;10225502;28;20053;-69
2022/04/06 13:48:57;;;;;;;14.70;7.55;;;;;;;8.80;100.00;99534.78;10226282;28;20081;-69
2022/04/06 13:53:54;;;;;;;12.02;6.88;;;;;;;8.84;100.00;99532.97;10211135;28;20042;-69
2022/04/06 13:58:50;;;;;;;18.13;7.68;;;;;;;8.79;100.00;99505.94;10215608;28;20077;-69
2022/04/06 14:03:47;;;;;;;15.35;7.07;;;;;;;8.68;100.00;99505.56;10208567;28;20080;-69
2022/04/06 14:08:43;;;;;;;13.73;7.32;;;;;;;8.70;100.00;99497.03;10214278;28;20052;-69
2022/04/06 14:13:40;;;;;;;16.45;8.40;;;;;;;8.64;100.00;99499.97;10207126;28;20073;-69
2022/04/06 14:18:37;;;;;;;12.13;8.40;;;;;;;8.52;100.00;99497.22;10222025;28;20141;-70
2022/04/06 14:23:37;;;;;;;14.68;8.38;;;;;;;8.51;100.00;99484.69;10220064;28;20135;-68
2022/04/06 14:28:35;;;;;;;13.82;8.13;;;;;;;8.48;100.00;99485.38;10222628;28;20076;-68
2022/04/06 14:33:32;;;;;;;13.60;8.05;;;;;;;8.50;100.00;99483.13;10229809;28;20503;-69
2022/04/06 14:38:29;;;;;;;15.93;7.80;;;;;;;8.46;100.00;99476.75;10226471;28;20061;-67
2022/04/06 14:43:26;;;;;;;15.35;8.70;;;;;;;8.46;100.00;99459.59;10227281;28;20073;-66
2022/04/06 14:48:23;;;;;;;15.70;8.40;;;;;;;8.47;100.00;99477.53;10217241;28;20050;-65
2022/04/06 14:53:19;;;;;;;15.18;7.82;;;;;;;8.47;100.00;99451.09;10201160;28;20049;-65
2022/04/06 14:58:17;;;;;;;13.55;9.00;;;;;;;8.43;100.00;99461.06;10198656;28;20053;-65
2022/04/06 15:03:14;;;;;;;16.00;9.48;;;;;;;8.35;100.00;99440.13;10200533;28;20097;-65
2022/04/06 15:08:13;;;;;;;14.30;9.15;;;;;;;8.40;100.00;99450.81;10204286;28;20134;-65
2022/04/06 15:13:10;;;;;;;18.98;9.55;;;;;;;8.57;100.00;99437.06;10203169;28;20057;-65
2022/04/06 15:18:07;;;;;;;14.65;9.23;;;;;;;8.69;100.00;99438.25;10197023;28;20423;-64
2022/04/06 15:23:06;;;;;;;13.18;8.02;;;;;;;8.58;100.00;99430.47;10199661;28;20502;-66
2022/04/06 15:28:03;;;;;;;12.48;9.30;;;;;;;8.62;100.00;99415.03;10203373;28;20045;-65
2022/04/06 15:33:00;;;;;;;19.05;9.25;;;;;;;8.82;100.00;99407.94;10213496;28;20453;-66
2022/04/06 15:37:57;;;;;;;10.80;7.82;;;;;;;8.83;100.00;99403.28;10198092;28;20049;-66
2022/04/06 15:42:53;;;;;;;13.48;7.88;;;;;;;8.96;100.00;99385.03;10184596;28;20133;-66
2022/04/06 15:47:50;;;;;;;10.88;7.97;;;;;;;8.98;100.00;99382.75;10190703;28;20041;-66
2022/04/06 15:52:46;;;;;;;10.48;7.05;;;;;;;8.93;100.00;99359.22;10210661;28;20147;-65
2022/04/06 15:57:43;;;;;;;11.70;7.78;;;;;;;9.00;100.00;99369.56;10213593;28;20490;-66
2022/04/06 16:02:40;;;;;;;11.00;6.53;;;;;;;9.01;100.00;99360.28;10198719;28;20080;-66
2022/04/06 16:07:37;;;;;;;11.60;6.30;;;;;;;9.08;100.00;99357.78;10201818;28;20087;-66
2022/04/06 16:12:35;;;;;;;10.35;6.78;;;;;;;9.09;100.00;99358.56;10215318;28;20148;-66
2022/04/06 16:17:33;;;;;;;12.40;6.75;;;;;;;9.09;100.00;99344.94;10212885;28;20061;-66
2022/04/06 16:22:30;;;;;;;11.02;5.85;;;;;;;8.97;100.00;99341.06;10213890;28;20140;-66
2022/04/06 16:27:26;;;;;;;12.02;6.85;;;;;;;8.98;100.00;99345.41;10206246;28;20042;-67
2022/04/06 16:32:23;;;;;;;7.20;5.45;;;;;;;8.86;100.00;99345.38;10213416;28;20136;-66
2022/04/06 16:37:19;;;;;;;10.57;6.97;;;;;;;8.79;100.00;99358.75;10187054;28;20085;-65
2022/04/06 16:42:16;;;;;;;12.60;8.00;;;;;;;8.63;100.00;99356.72;10191801;28;20065;-66
2022/04/06 16:47:13;;;;;;;13.02;8.27;;;;;;;8.48;100.00;99365.53;10204813;28;20080;-66
2022/04/06 16:57:32;;;;;;;16.75;11.00;;;;;;;8.29;100.00;99346.16;10208172;28;20078;-65
2022/04/06 17:02:29;;;;;;;12.63;10.13;;;;;;;8.23;100.00;99334.66;10199066;28;20049;-66
2022/04/06 17:07:26;;;;;;;14.23;12.40;;;;;;;8.28;100.00;99329.00;10211830;28;20073;-66
2022/04/06 17:12:22;;;;;;;20.10;14.15;;;;;;;8.17;100.00;99315.03;10205127;28;20173;-65
2022/04/06 17:17:19;;;;;;;15.65;12.82;;;;;;;8.11;100.00;99313.63;10210228;28;20407;-66
2022/04/06 17:22:15;;;;;;;19.85;14.25;;;;;;;8.10;100.00;99301.16;10207618;28;20077;-66
2022/04/06 17:27:12;;;;;;;20.50;14.43;;;;;;;8.10;100.00;99287.56;10225563;28;20080;-66
2022/04/06 17:32:09;;;;;;;24.20;17.02;;;;;;;8.05;100.00;99285.03;10231482;28;20660;-66
2022/04/06 17:37:05;;;;;;;21.65;16.83;;;;;;;8.05;100.00;99276.84;10227006;28;20052;-66
2022/04/06 17:42:02;;;;;;;20.25;16.58;;;;;;;8.03;100.00;99265.53;10230902;28;20400;-66
2022/04/06 17:46:58;;;;;;;18.65;14.75;;;;;;;8.01;100.00;99276.75;10219823;28;20139;-66
2022/04/06 17:51:56;;;;;;;20.83;16.50;;;;;;;8.02;100.00;99261.22;10232004;28;20073;-66
2022/04/06 17:56:53;;;;;;;19.10;16.10;;;;;;;8.03;100.00;99235.59;10223725;28;20041;-66
2022/04/06 18:01:50;;;;;;;17.58;15.00;;;;;;;8.04;100.00;99234.44;10232111;28;20045;-66
2022/04/06 18:06:47;;;;;;;18.20;14.13;;;;;;;8.07;100.00;99231.03;10229479;28;20639;-65
2022/04/06 18:16:58;;;;;;;17.23;12.35;;;;;;;8.10;100.00;99235.84;10227229;28;20144;-65
2022/04/06 18:21:56;;;;;;;14.70;10.18;;;;;;;8.15;100.00;99211.09;10227951;28;20132;-65
2022/04/06 18:26:52;;;;;;;16.08;12.20;;;;;;;8.19;100.00;99212.03;10229967;28;20121;-65
2022/04/06 18:31:49;;;;;;;13.48;9.90;;;;;;;8.23;100.00;99204.75;10228232;28;20080;-65
2022/04/06 18:36:48;;;;;;;14.60;11.50;;;;;;;8.31;100.00;99226.75;10228115;28;20041;-65
2022/04/06 18:41:47;;;;;;;13.90;10.02;;;;;;;8.35;100.00;99208.63;10209467;28;20080;-65
2022/04/06 18:46:44;;;;;;;16.27;10.10;;;;;;;8.35;100.00;99219.50;10223803;28;20046;-65
2022/04/06 18:51:41;;;;;;;13.40;10.00;;;;;;;8.36;100.00;99204.78;10221264;28;20121;-65
2022/04/06 18:56:38;;;;;;;12.32;10.48;;;;;;;8.35;100.00;99206.69;10228130;28;20055;-64
2022/04/06 19:01:38;;;;;;;15.98;9.95;;;;;;;8.41;100.00;99220.91;10224271;28;20053;-65
2022/04/06 19:06:36;;;;;;;15.65;10.10;;;;;;;8.44;100.00;99220.22;10227522;28;20045;-64
2022/04/06 19:11:33;;;;;;;12.43;9.00;;;;;;;8.47;100.00;99213.31;10213383;28;20077;-65
2022/04/06 19:16:31;;;;;;;13.35;8.77;;;;;;;8.44;100.00;99217.50;10220373;28;20488;-65
2022/04/06 19:21:28;;;;;;;11.30;8.95;;;;;;;8.41;100.00;99207.31;10216461;28;20140;-64
2022/04/06 19:26:27;;;;;;;13.65;8.35;;;;;;;8.40;100.00;99211.16;10227223;28;20077;-64
2022/04/06 19:31:24;;;;;;;14.38;9.55;;;;;;;8.37;100.00;99200.91;10213215;28;20510;-64
2022/04/06 19:36:25;;;;;;;10.80;7.43;;;;;;;8.37;100.00;99200.91;10218885;28;20140;-65
2022/04/06 19:41:22;;;;;;;10.65;8.73;;;;;;;8.35;100.00;99235.84;10227999;28;20049;-64
2022/04/06 19:46:19;;;;;;;10.10;7.78;;;;;;;8.26;100.00;99206.00;10219916;28;20057;-64
2022/04/06 19:51:16;;;;;;;11.30;7.85;;;;;;;8.21;100.00;99209.78;10228296;28;20041;-64
2022/04/06 19:56:13;;;;;;;8.38;6.47;;;;;;;8.28;100.00;99230.19;10224168;28;20041;-64
2022/04/06 20:01:09;;;;;;;8.90;6.40;;;;;;;8.26;100.00;99207.94;10227188;28;20044;-64
2022/04/06 20:06:07;;;;;;;11.10;7.20;;;;;;;8.32;100.00;99198.41;10223004;28;20053;-65
2022/04/06 20:11:04;;;;;;;10.80;5.63;;;;;;;8.33;100.00;99172.75;10226323;28;20111;-65
2022/04/06 20:16:02;;;;;;;9.13;6.93;;;;;;;8.34;100.00;99201.59;10222304;28;20045;-65
2022/04/06 20:20:59;;;;;;;10.63;7.15;;;;;;;8.35;100.00;99184.13;10216411;28;20041;-64
2022/04/06 20:25:57;;;;;;;11.98;6.32;;;;;;;8.34;100.00;99166.19;10211586;28;20583;-66
2022/04/06 20:30:55;;;;;;;9.32;5.68;;;;;;;8.35;100.00;99165.06;10228392;28;20065;-66
2022/04/06 20:35:53;;;;;;;9.52;5.85;;;;;;;8.34;100.00;99155.31;10223377;28;20127;-67
2022/04/06 20:40:50;;;;;;;5.88;4.20;;;;;;;8.34;100.00;99153.38;10216349;28;20128;-68
2022/04/06 20:45:47;;;;;;;9.38;5.10;;;;;;;8.35;100.00;99137.81;10211917;28;20057;-67
2022/04/06 20:50:45;;;;;;;8.60;5.60;;;;;;;8.12;100.00;99141.00;10215774;28;20054;-66
2022/04/06 20:55:43;;;;;;;7.45;5.50;;;;;;;8.06;100.00;99126.03;10232198;28;20469;-65
2022/04/06 21:00:39;;;;;;;10.30;6.72;;;;;;;8.03;100.00;99137.59;10232125;28;20550;-65
2022/04/06 21:05:36;;;;;;;13.02;8.23;;;;;;;8.06;100.00;99136.13;10231711;28;20561;-66
2022/04/06 21:10:33;;;;;;;9.85;7.78;;;;;;;8.08;100.00;99123.75;10233991;28;20518;-67
2022/04/06 21:15:29;;;;;;;11.93;8.93;;;;;;;8.09;100.00;99108.22;10234045;28;20124;-65
2022/04/06 21:20:29;;;;;;;12.38;9.07;;;;;;;8.11;100.00;99101.28;10228699;28;20714;-66
2022/04/06 21:25:26;;;;;;;11.55;7.25;;;;;;;8.14;100.00;99088.94;10229783;28;20160;-65
2022/04/06 21:30:23;;;;;;;9.32;6.97;;;;;;;8.22;100.00;99075.22;10233983;28;20087;-65
2022/04/06 21:35:19;;;;;;;9.80;7.57;;;;;;;8.23;100.00;99071.34;10224199;28;20054;-64
2022/04/06 21:40:16;;;;;;;9.50;5.32;;;;;;;8.23;100.00;99060.44;10234414;28;20049;-66
2022/04/06 21:45:12;;;;;;;11.88;7.40;;;;;;;8.21;100.00;99046.41;10229457;28;20084;-68
2022/04/06 21:50:14;;;;;;;8.48;5.95;;;;;;;8.18;100.00;99047.06;10226408;28;20060;-67
2022/04/06 21:55:10;;;;;;;8.35;6.38;;;;;;;8.16;100.00;99038.44;10228888;28;20625;-67
2022/04/06 22:00:11;;;;;;;7.25;5.63;;;;;;;8.20;100.00;99033.91;10233302;28;20083;-67
2022/04/06 22:05:08;;;;;;;6.68;4.63;;;;;;;8.19;100.00;99020.63;10221971;28;20096;-67
2022/04/06 22:10:05;;;;;;;8.40;5.55;;;;;;;8.26;100.00;99025.50;10231092;28;20069;-66
2022/04/06 22:15:02;;;;;;;5.68;3.83;;;;;;;8.30;100.00;99031.84;10229125;28;20499;-67
2022/04/06 22:19:59;;;;;;;7.28;4.80;;;;;;;8.33;100.00;99009.38;10229470;28;20080;-67
2022/04/06 22:24:55;;;;;;;6.60;4.65;;;;;;;8.33;100.00;99009.38;10227371;28;20092;-67
2022/04/06 22:29:52;;;;;;;7.32;5.18;;;;;;;8.33;100.00;99020.25;10230280;28;20105;-68
2022/04/06 22:34:51;;;;;;;7.40;5.22;;;;;;;8.29;100.00;99016.66;10231702;28;20049;-66
2022/04/06 22:39:47;;;;;;;8.50;5.30;;;;;;;8.23;100.00;99006.00;10231545;28;20489;-66
2022/04/06 22:44:44;;;;;;;7.13;5.03;;;;;;;8.19;100.00;99009.75;10232110;28;20045;-65
2022/04/06 22:49:40;;;;;;;9.02;6.40;;;;;;;8.12;100.00;99004.09;10215831;28;20165;-65
2022/04/06 22:54:37;;;;;;;9.02;6.40;;;;;;;8.11;100.00;99003.31;10228861;28;20049;-64
2022/04/06 22:59:33;;;;;;;8.07;5.93;;;;;;;8.16;100.00;98983.22;10230304;28;20606;-64
2022/04/06 23:04:29;;;;;;;7.75;5.60;;;;;;;8.18;100.00;98981.72;10229551;28;20069;-65
2022/04/06 23:09:27;;;;;;;9.38;6.38;;;;;;;8.22;100.00;98976.41;10231688;28;20046;-64